createdAt,value
2022-10-25T00:02:16.439Z,9.84
2022-10-25T00:04:17.153Z,9.75
2022-10-25T00:06:17.300Z,9.74
2022-10-25T00:08:15.753Z,9.80
2022-10-25T00:10:18.372Z,9.94
2022-10-25T00:12:19.574Z,10.01
2022-10-25T00:14:19.860Z,10.04
2022-10-25T00:16:20.727Z,9.97
2022-10-25T00:18:18.813Z,9.89
2022-10-25T00:20:27.398Z,9.80
2022-10-25T00:22:25.764Z,9.75
2022-10-25T00:24:24.077Z,9.72
2022-10-25T00:26:22.896Z,9.69
2022-10-25T00:28:20.982Z,9.69
2022-10-25T00:30:19.412Z,9.75
2022-10-25T00:32:17.692Z,9.73
2022-10-25T00:34:16.159Z,9.83
2022-10-25T00:36:18.438Z,9.87
2022-10-25T00:38:18.032Z,9.80
2022-10-25T00:40:18.159Z,9.69
2022-10-25T00:42:22.241Z,9.65
2022-10-25T00:44:51.067Z,9.66
2022-10-25T00:46:49.380Z,9.63
2022-10-25T00:48:55.317Z,9.68
2022-10-25T00:50:56.461Z,9.67
2022-10-25T00:53:02.564Z,9.68
2022-10-25T00:55:02.094Z,9.62
2022-10-25T00:57:04.506Z,9.68
2022-10-25T00:59:05.484Z,9.59
2022-10-25T01:01:08.092Z,9.53
2022-10-25T01:03:07.779Z,9.49
2022-10-25T01:05:06.858Z,9.44
2022-10-25T01:07:05.529Z,9.41
2022-10-25T01:09:20.475Z,9.47
2022-10-25T01:11:23.784Z,9.51
2022-10-25T01:15:12.615Z,9.64
2022-10-25T01:21:33.269Z,9.37
2022-10-25T01:24:02.301Z,9.35
2022-10-25T01:26:44.226Z,9.28
2022-10-25T01:29:05.283Z,9.23
2022-10-25T01:31:27.411Z,9.24
2022-10-25T01:33:32.991Z,9.37
2022-10-25T01:35:33.819Z,9.32
2022-10-25T01:37:42.256Z,9.28
2022-10-25T01:40:00.096Z,9.33
2022-10-25T01:42:07.603Z,9.31
2022-10-25T01:47:18.751Z,9.12
2022-10-25T01:49:23.316Z,9.07
2022-10-25T01:56:28.320Z,9.08
2022-10-25T01:59:00.481Z,9.10
2022-10-25T02:04:53.011Z,9.12
2022-10-25T02:07:00.707Z,9.00
2022-10-25T02:09:03.900Z,8.97
2022-10-25T02:11:08.167Z,8.94
2022-10-25T02:15:57.499Z,8.93
2022-10-25T02:18:00.698Z,8.93
2022-10-25T02:20:02.852Z,8.97
2022-10-25T02:22:03.790Z,8.90
2022-10-25T02:24:10.339Z,8.92
2022-10-25T02:27:14.476Z,8.84
2022-10-25T02:29:14.886Z,8.73
2022-10-25T02:31:50.124Z,8.63
2022-10-25T02:37:45.218Z,8.72
2022-10-25T02:39:45.125Z,8.76
2022-10-25T02:41:43.468Z,8.73
2022-10-25T02:43:41.714Z,8.71
2022-10-25T02:49:10.759Z,8.54
2022-10-25T02:55:59.022Z,8.41
2022-10-25T03:05:46.283Z,8.53
2022-10-25T03:07:44.548Z,8.47
2022-10-25T03:09:43.023Z,8.53
2022-10-25T03:11:41.292Z,8.49
2022-10-25T03:13:40.908Z,8.45
2022-10-25T03:16:16.967Z,8.45
2022-10-25T03:18:16.465Z,8.39
2022-10-25T03:20:29.988Z,8.35
2022-10-25T03:23:17.804Z,8.35
2022-10-25T03:33:51.345Z,8.25
2022-10-25T03:35:51.705Z,8.19
2022-10-25T03:37:50.603Z,8.17
2022-10-25T03:39:48.985Z,8.13
2022-10-25T03:42:48.682Z,8.09
2022-10-25T03:48:01.331Z,8.16
2022-10-25T03:50:01.037Z,8.26
2022-10-25T03:52:01.329Z,8.27
2022-10-25T03:57:02.610Z,8.18
2022-10-25T03:59:26.169Z,8.23
2022-10-25T04:10:00.116Z,8.18
2022-10-25T04:12:47.902Z,8.15
2022-10-25T04:14:46.351Z,8.08
2022-10-25T04:16:58.559Z,8.07
2022-10-25T04:18:57.389Z,8.04
2022-10-25T04:21:14.519Z,8.07
2022-10-25T04:23:34.820Z,8.16
2022-10-25T04:25:59.850Z,8.22
2022-10-25T04:31:32.045Z,8.16
2022-10-25T04:33:30.317Z,8.08
2022-10-25T04:39:25.160Z,8.03
2022-10-25T04:42:17.776Z,8.00
2022-10-25T04:44:17.589Z,7.97
2022-10-25T04:46:19.857Z,8.09
2022-10-25T04:52:32.901Z,8.22
2022-10-25T04:57:10.820Z,8.29
2022-10-25T05:02:33.989Z,8.23
2022-10-25T05:04:57.065Z,8.23
2022-10-25T05:15:03.016Z,8.82
2022-10-25T05:17:04.318Z,8.92
2022-10-25T05:35:45.389Z,9.87
2022-10-25T05:37:43.753Z,10.08
2022-10-25T05:39:41.989Z,10.36
2022-10-25T05:41:40.295Z,10.94
2022-10-25T05:43:38.402Z,11.47
2022-10-25T05:45:36.690Z,11.93
2022-10-25T05:47:36.309Z,12.85
2022-10-25T05:49:39.577Z,13.51
2022-10-25T05:51:38.738Z,13.78
2022-10-25T05:53:36.988Z,14.36
2022-10-25T05:55:35.372Z,14.58
2022-10-25T05:57:34.805Z,14.42
2022-10-25T05:59:33.092Z,14.47
2022-10-25T06:01:31.487Z,14.84
2022-10-25T06:03:31.206Z,15.11
2022-10-25T06:05:29.634Z,15.63
2022-10-25T06:07:27.797Z,16.31
2022-10-25T06:09:26.051Z,16.04
2022-10-25T06:11:24.561Z,16.14
2022-10-25T06:13:23.026Z,15.70
2022-10-25T06:15:21.266Z,15.97
2022-10-25T06:17:19.601Z,15.89
2022-10-25T06:19:19.260Z,15.84
2022-10-25T06:21:19.590Z,15.53
2022-10-25T06:23:17.905Z,16.22
2022-10-25T06:25:16.297Z,16.29
2022-10-25T06:27:14.430Z,16.42
2022-10-25T06:29:14.040Z,16.65
2022-10-25T06:31:14.185Z,16.82
2022-10-25T06:33:12.435Z,17.23
2022-10-25T06:35:11.906Z,17.72
2022-10-25T06:37:10.189Z,17.68
2022-10-25T06:39:08.458Z,17.90
2022-10-25T06:41:08.625Z,17.86
2022-10-25T06:43:06.941Z,17.96
2022-10-25T06:45:06.652Z,17.94
2022-10-25T06:47:17.011Z,17.73
2022-10-25T06:49:16.160Z,17.77
2022-10-25T06:51:16.816Z,17.60
2022-10-25T06:53:15.852Z,17.22
2022-10-25T06:55:13.998Z,17.84
2022-10-25T06:57:12.379Z,18.32
2022-10-25T06:59:10.599Z,18.96
2022-10-25T07:01:11.668Z,19.03
2022-10-25T07:03:10.057Z,18.89
2022-10-25T07:05:10.467Z,18.71
2022-10-25T07:07:10.394Z,18.90
2022-10-25T07:09:12.751Z,19.05
2022-10-25T07:11:16.166Z,17.95
2022-10-25T07:13:14.357Z,17.74
2022-10-25T07:15:26.545Z,17.40
2022-10-25T07:17:59.405Z,18.09
2022-10-25T07:20:06.869Z,18.54
2022-10-25T07:25:50.502Z,18.88
2022-10-25T07:27:56.500Z,19.39
2022-10-25T07:30:33.484Z,19.53
2022-10-25T07:33:04.110Z,19.64
2022-10-25T07:36:16.727Z,20.43
2022-10-25T07:46:39.202Z,19.89
2022-10-25T07:53:51.965Z,20.83
2022-10-25T07:55:56.928Z,22.05
2022-10-25T07:58:01.186Z,22.13
2022-10-25T08:00:00.841Z,22.33
2022-10-25T08:02:07.375Z,22.66
2022-10-25T08:09:14.972Z,22.57
2022-10-25T08:11:18.917Z,22.54
2022-10-25T08:13:47.488Z,22.51
2022-10-25T08:27:15.382Z,24.91
2022-10-25T08:36:51.922Z,25.97
2022-10-25T08:38:50.104Z,25.73
2022-10-25T08:40:55.564Z,26.50
2022-10-25T08:43:03.093Z,26.52
2022-10-25T08:45:06.505Z,26.01
2022-10-25T08:47:11.221Z,25.90
2022-10-25T08:49:19.321Z,26.44
2022-10-25T08:51:26.214Z,26.66
2022-10-25T08:53:29.103Z,26.91
2022-10-25T08:55:34.129Z,27.62
2022-10-25T08:57:35.695Z,27.46
2022-10-25T08:59:38.954Z,27.70
2022-10-25T09:01:44.731Z,27.60
2022-10-25T09:03:43.215Z,27.99
2022-10-25T09:05:44.349Z,27.98
2022-10-25T09:07:57.668Z,29.06
2022-10-25T09:10:05.800Z,28.79
2022-10-25T09:12:13.953Z,29.10
2022-10-25T09:14:20.998Z,30.43
2022-10-25T09:16:21.721Z,30.10
2022-10-25T09:18:48.454Z,29.17
2022-10-25T09:22:01.885Z,29.45
2022-10-25T09:28:12.881Z,32.32
2022-10-25T09:30:40.408Z,31.83
2022-10-25T09:37:35.634Z,28.94
2022-10-25T09:43:42.373Z,28.82
2022-10-25T09:45:50.442Z,29.58
2022-10-25T09:47:55.809Z,29.77
2022-10-25T09:50:00.421Z,29.79
2022-10-25T09:53:17.720Z,29.42
2022-10-25T09:55:32.528Z,29.03
2022-10-25T09:57:30.688Z,29.44
2022-10-25T09:59:30.602Z,29.50
2022-10-25T10:01:30.962Z,29.82
2022-10-25T10:03:35.309Z,29.98
2022-10-25T10:05:33.937Z,29.84
2022-10-25T10:07:35.642Z,30.46
2022-10-25T10:09:39.145Z,29.92
2022-10-25T10:11:40.944Z,29.43
2022-10-25T10:13:44.138Z,29.17
2022-10-25T10:15:51.373Z,29.37
2022-10-25T10:18:22.522Z,29.42
2022-10-25T10:20:21.260Z,29.30
2022-10-25T10:22:19.614Z,29.13
2022-10-25T10:24:22.504Z,29.08
2022-10-25T10:26:31.892Z,29.14
2022-10-25T10:28:30.730Z,29.08
2022-10-25T10:30:31.446Z,29.19
2022-10-25T10:32:35.201Z,29.19
2022-10-25T10:34:42.609Z,29.76
2022-10-25T10:36:42.798Z,29.96
2022-10-25T10:38:41.061Z,29.63
2022-10-25T10:40:39.446Z,29.59
2022-10-25T10:42:41.438Z,28.69
2022-10-25T10:44:39.886Z,27.60
2022-10-25T10:46:38.271Z,26.70
2022-10-25T10:48:42.815Z,25.79
2022-10-25T10:51:43.012Z,25.05
2022-10-25T10:53:47.044Z,24.74
2022-10-25T10:55:49.547Z,24.62
2022-10-25T10:57:54.274Z,24.55
2022-10-25T11:00:00.654Z,24.45
2022-10-25T11:02:25.041Z,24.29
2022-10-25T11:04:56.419Z,24.12
2022-10-25T11:07:14.466Z,24.06
2022-10-25T11:09:23.263Z,24.03
2022-10-25T11:11:24.809Z,23.97
2022-10-25T11:13:25.770Z,23.90
2022-10-25T11:15:24.231Z,24.05
2022-10-25T11:17:27.525Z,24.10
2022-10-25T11:20:12.565Z,24.16
2022-10-25T11:22:27.393Z,24.16
2022-10-25T11:24:34.494Z,24.33
2022-10-25T11:26:46.910Z,24.41
2022-10-25T11:36:15.272Z,24.36
2022-10-25T11:38:36.175Z,24.45
2022-10-25T11:40:40.896Z,24.48
2022-10-25T11:43:01.119Z,24.42
2022-10-25T11:45:23.870Z,24.52
2022-10-25T11:47:35.373Z,24.64
2022-10-25T11:49:50.703Z,24.71
2022-10-25T11:52:02.316Z,24.63
2022-10-25T11:54:23.751Z,24.36
2022-10-25T11:56:30.859Z,24.26
2022-10-25T11:58:43.996Z,24.11
2022-10-25T12:00:53.806Z,24.13
2022-10-25T12:03:09.567Z,24.10
2022-10-25T12:05:58.424Z,24.15
2022-10-25T12:11:22.290Z,24.30
2022-10-25T12:13:25.773Z,24.25
2022-10-25T12:15:30.645Z,24.15
2022-10-25T12:17:31.583Z,24.15
2022-10-25T12:19:33.812Z,24.10
2022-10-25T12:21:39.541Z,24.21
2022-10-25T12:23:44.281Z,24.25
2022-10-25T12:25:47.277Z,24.12
2022-10-25T12:27:53.163Z,24.05
2022-10-25T12:29:59.532Z,24.01
2022-10-25T12:32:00.083Z,24.07
2022-10-25T12:34:03.058Z,24.10
2022-10-25T12:36:06.265Z,24.02
2022-10-25T12:38:12.356Z,23.90
2022-10-25T12:40:17.463Z,23.85
2022-10-25T12:42:21.313Z,23.88
2022-10-25T12:44:39.513Z,23.86
2022-10-25T12:47:07.776Z,23.89
2022-10-25T12:49:24.804Z,23.81
2022-10-25T12:51:37.826Z,23.77
2022-10-25T12:54:04.447Z,23.84
2022-10-25T12:56:07.657Z,23.76
2022-10-25T12:58:33.263Z,23.67
2022-10-25T13:00:39.518Z,23.63
2022-10-25T13:03:17.057Z,23.55
2022-10-25T13:05:44.959Z,23.58
2022-10-25T13:07:43.687Z,23.44
2022-10-25T13:09:42.705Z,23.39
2022-10-25T13:11:43.821Z,23.42
2022-10-25T13:13:50.213Z,23.40
2022-10-25T13:15:52.834Z,23.50
2022-10-25T13:18:04.014Z,23.46
2022-10-25T13:20:35.411Z,23.47
2022-10-25T13:22:37.740Z,23.52
2022-10-25T13:24:46.792Z,23.47
2022-10-25T13:27:20.258Z,23.38
2022-10-25T13:30:04.238Z,23.40
2022-10-25T13:32:15.425Z,23.35
2022-10-25T13:34:30.608Z,23.27
2022-10-25T13:36:51.876Z,23.11
2022-10-25T13:39:05.272Z,23.09
2022-10-25T13:41:09.085Z,22.97
2022-10-25T13:43:19.440Z,22.92
2022-10-25T13:45:30.013Z,22.89
2022-10-25T13:47:41.807Z,22.85
2022-10-25T13:49:44.173Z,22.79
2022-10-25T13:51:48.744Z,22.72
2022-10-25T13:53:48.929Z,22.66
2022-10-25T13:56:18.925Z,22.69
2022-10-25T13:59:11.405Z,22.84
2022-10-25T14:07:49.363Z,22.92
2022-10-25T14:09:54.350Z,22.85
2022-10-25T14:11:55.510Z,22.82
2022-10-25T14:14:01.416Z,22.82
2022-10-25T14:16:04.158Z,22.86
2022-10-25T14:18:09.086Z,22.84
2022-10-25T14:22:18.141Z,22.83
2022-10-25T14:24:18.647Z,22.83
2022-10-25T14:26:18.219Z,22.83
2022-10-25T14:28:18.512Z,22.82
2022-10-25T14:30:24.767Z,22.82
2022-10-25T14:32:23.680Z,22.76
2022-10-25T14:34:23.160Z,22.71
2022-10-25T14:36:28.703Z,22.63
2022-10-25T14:38:28.753Z,22.59
2022-10-25T14:40:30.887Z,22.51
2022-10-25T14:42:29.106Z,22.39
2022-10-25T14:44:29.568Z,22.35
2022-10-25T14:46:30.368Z,22.34
2022-10-25T14:48:29.181Z,22.30
2022-10-25T14:50:27.589Z,22.34
2022-10-25T14:52:26.737Z,22.26
2022-10-25T14:54:29.559Z,22.23
2022-10-25T14:56:32.415Z,22.15
2022-10-25T14:58:40.449Z,21.98
2022-10-25T15:00:38.741Z,21.89
2022-10-25T15:02:40.488Z,21.82
2022-10-25T15:04:41.807Z,21.78
2022-10-25T15:06:41.860Z,21.75
2022-10-25T15:08:42.321Z,21.68
2022-10-25T15:10:42.909Z,21.59
2022-10-25T15:12:52.597Z,21.53
2022-10-25T15:14:50.689Z,21.44
2022-10-25T15:16:49.942Z,21.35
2022-10-25T15:19:04.911Z,21.28
2022-10-25T15:21:05.187Z,21.21
2022-10-25T15:23:05.500Z,21.13
2022-10-25T15:25:17.210Z,21.06
2022-10-25T15:27:35.351Z,20.94
2022-10-25T15:31:46.459Z,20.74
2022-10-25T15:33:45.687Z,20.60
2022-10-25T15:35:50.066Z,20.47
2022-10-25T15:37:48.240Z,20.35
2022-10-25T15:39:47.276Z,20.26
2022-10-25T15:41:45.612Z,20.15
2022-10-25T15:43:43.759Z,20.07
2022-10-25T15:45:44.184Z,19.98
2022-10-25T15:47:43.128Z,19.92
2022-10-25T15:49:41.349Z,19.96
2022-10-25T15:51:41.799Z,19.99
2022-10-25T15:53:39.930Z,20.01
2022-10-25T15:55:38.205Z,20.00
2022-10-25T15:57:36.517Z,19.98
2022-10-25T15:59:34.653Z,19.96
2022-10-25T16:01:34.538Z,19.91
2022-10-25T16:03:33.171Z,19.89
2022-10-25T16:05:33.366Z,19.86
2022-10-25T16:07:31.982Z,19.80
2022-10-25T16:09:30.093Z,19.78
2022-10-25T16:11:28.600Z,19.79
2022-10-25T16:13:30.134Z,19.78
2022-10-25T16:15:28.791Z,19.75
2022-10-25T16:17:28.527Z,19.70
2022-10-25T16:19:31.335Z,19.65
2022-10-25T16:21:29.670Z,19.64
2022-10-25T16:23:28.434Z,19.59
2022-10-25T16:25:30.594Z,19.53
2022-10-25T16:27:31.352Z,19.48
2022-10-25T16:29:29.647Z,19.42
2022-10-25T16:31:30.405Z,19.37
2022-10-25T16:33:30.018Z,19.33
2022-10-25T16:35:28.271Z,19.31
2022-10-25T16:37:26.528Z,19.29
2022-10-25T16:39:24.863Z,19.25
2022-10-25T16:41:25.295Z,19.18
2022-10-25T16:43:23.591Z,19.13
2022-10-25T16:45:26.131Z,19.06
2022-10-25T16:47:24.501Z,19.01
2022-10-25T16:49:24.109Z,18.97
2022-10-25T16:51:22.531Z,18.96
2022-10-25T16:53:21.070Z,18.94
2022-10-25T16:55:22.403Z,18.90
2022-10-25T16:57:21.100Z,18.90
2022-10-25T16:59:19.415Z,18.86
2022-10-25T17:01:22.484Z,18.81
2022-10-25T17:03:22.084Z,18.81
2022-10-25T17:05:25.037Z,18.78
2022-10-25T17:07:23.376Z,18.73
2022-10-25T17:09:21.498Z,18.71
2022-10-25T17:11:19.717Z,18.66
2022-10-25T17:13:18.035Z,18.63
2022-10-25T17:15:16.998Z,18.61
2022-10-25T17:17:15.488Z,18.59
2022-10-25T17:19:14.246Z,18.56
2022-10-25T17:21:15.584Z,18.58
2022-10-25T17:23:14.158Z,18.60
2022-10-25T17:25:13.157Z,18.68
2022-10-25T17:27:11.293Z,18.70
2022-10-25T17:29:12.933Z,18.68
2022-10-25T17:31:12.514Z,18.64
2022-10-25T17:33:14.201Z,18.61
2022-10-25T17:35:15.590Z,18.57
2022-10-25T17:37:17.725Z,18.60
2022-10-25T17:39:16.988Z,18.54
2022-10-25T17:41:15.998Z,18.45
2022-10-25T17:43:15.513Z,18.38
2022-10-25T17:45:14.052Z,18.34
2022-10-25T17:47:12.758Z,18.35
2022-10-25T17:49:12.183Z,18.36
2022-10-25T17:51:12.731Z,18.33
2022-10-25T17:53:13.294Z,18.30
2022-10-25T17:55:11.900Z,18.25
2022-10-25T17:57:10.295Z,18.20
2022-10-25T17:59:08.668Z,18.19
2022-10-25T18:01:07.507Z,18.16
2022-10-25T18:03:05.810Z,18.07
2022-10-25T18:05:20.712Z,17.98
2022-10-25T18:07:19.474Z,17.88
2022-10-25T18:09:19.295Z,17.84
2022-10-25T18:11:19.479Z,17.82
2022-10-25T18:13:18.778Z,17.80
2022-10-25T18:15:17.243Z,17.73
2022-10-25T18:17:15.579Z,17.72
2022-10-25T18:19:15.630Z,17.79
2022-10-25T18:21:15.853Z,17.74
2022-10-25T18:23:14.731Z,17.82
2022-10-25T18:25:14.278Z,17.68
2022-10-25T18:27:15.111Z,17.67
2022-10-25T18:29:15.797Z,17.65
2022-10-25T18:31:17.495Z,17.62
2022-10-25T18:33:15.727Z,17.68
2022-10-25T18:35:13.895Z,17.67
2022-10-25T18:37:12.185Z,17.62
2022-10-25T18:39:10.489Z,17.55
2022-10-25T18:41:12.577Z,17.47
2022-10-25T18:43:10.961Z,17.47
2022-10-25T18:45:09.793Z,17.45
2022-10-25T18:47:08.047Z,17.38
2022-10-25T18:49:06.890Z,17.32
2022-10-25T18:51:08.950Z,17.23
2022-10-25T18:53:07.200Z,17.35
2022-10-25T18:55:06.265Z,17.25
2022-10-25T18:57:05.979Z,17.19
2022-10-25T18:59:04.922Z,17.16
2022-10-25T19:01:11.346Z,17.17
2022-10-25T19:03:10.652Z,17.12
2022-10-25T19:05:10.217Z,17.07
2022-10-25T19:07:08.652Z,17.01
2022-10-25T19:09:07.087Z,16.98
2022-10-25T19:11:06.395Z,17.03
2022-10-25T19:13:06.280Z,17.05
2022-10-25T19:15:05.301Z,17.01
2022-10-25T19:17:03.619Z,16.99
2022-10-25T19:19:03.533Z,16.94
2022-10-25T19:21:03.204Z,16.96
2022-10-25T19:23:01.374Z,16.82
2022-10-25T19:24:59.576Z,16.86
2022-10-25T19:26:57.990Z,16.75
2022-10-25T19:28:59.214Z,16.70
2022-10-25T19:30:57.723Z,16.68
2022-10-25T19:32:55.978Z,16.56
2022-10-25T19:34:56.819Z,16.55
2022-10-25T19:36:56.736Z,16.52
2022-10-25T19:38:54.941Z,16.53
2022-10-25T19:40:53.121Z,16.50
2022-10-25T19:42:51.311Z,16.49
2022-10-25T19:44:52.054Z,16.48
2022-10-25T19:46:50.660Z,16.42
2022-10-25T19:48:49.114Z,16.34
2022-10-25T19:50:48.587Z,16.25
2022-10-25T19:52:47.232Z,16.15
2022-10-25T19:54:45.550Z,16.12
2022-10-25T19:56:43.753Z,16.13
2022-10-25T19:58:42.398Z,16.13
2022-10-25T20:00:42.096Z,16.07
2022-10-25T20:02:40.717Z,16.03
2022-10-25T20:04:39.098Z,15.94
2022-10-25T20:06:37.280Z,15.83
2022-10-25T20:08:37.475Z,15.78
2022-10-25T20:10:35.732Z,15.69
2022-10-25T20:12:33.867Z,15.61
2022-10-25T20:14:37.720Z,15.52
2022-10-25T20:16:37.205Z,15.45
2022-10-25T20:18:37.141Z,15.41
2022-10-25T20:20:36.376Z,15.40
2022-10-25T20:22:38.014Z,15.31
2022-10-25T20:24:38.285Z,15.33
2022-10-25T20:26:38.102Z,15.30
2022-10-25T20:28:36.338Z,15.53
2022-10-25T20:30:35.947Z,15.47
2022-10-25T20:32:35.514Z,15.34
2022-10-25T20:34:35.260Z,15.24
2022-10-25T20:36:33.640Z,15.20
2022-10-25T20:38:32.695Z,15.16
2022-10-25T20:40:31.192Z,15.16
2022-10-25T20:42:29.395Z,15.10
2022-10-25T20:44:27.609Z,15.11
2022-10-25T20:46:27.467Z,15.10
2022-10-25T20:48:27.071Z,15.05
2022-10-25T20:50:26.705Z,15.02
2022-10-25T20:52:25.114Z,14.97
2022-10-25T20:54:23.301Z,14.94
2022-10-25T20:56:23.238Z,14.92
2022-10-25T20:58:22.683Z,14.95
2022-10-25T21:00:21.150Z,14.97
2022-10-25T21:02:19.367Z,14.93
2022-10-25T21:04:26.121Z,14.94
2022-10-25T21:06:34.430Z,14.87
2022-10-25T21:08:33.376Z,14.81
2022-10-25T21:10:31.751Z,14.75
2022-10-25T21:12:30.773Z,14.74
2022-10-25T21:14:29.098Z,14.70
2022-10-25T21:16:27.395Z,14.72
2022-10-25T21:18:28.544Z,14.76
2022-10-25T21:20:28.543Z,14.79
2022-10-25T21:22:27.007Z,14.76
2022-10-25T21:24:25.260Z,14.70
2022-10-25T21:26:23.885Z,14.67
2022-10-25T21:28:22.154Z,14.72
2022-10-25T21:30:20.323Z,14.85
2022-10-25T21:32:18.611Z,14.83
2022-10-25T21:36:17.677Z,15.12
2022-10-25T21:38:15.754Z,15.23
2022-10-25T21:40:14.921Z,15.30
2022-10-25T21:42:13.071Z,15.27
2022-10-25T21:44:11.155Z,15.25
2022-10-25T21:46:09.444Z,15.21
2022-10-25T21:48:08.293Z,15.12
2022-10-25T21:50:09.285Z,15.06
2022-10-25T21:52:08.874Z,15.02
2022-10-25T21:54:07.321Z,14.95
2022-10-25T21:56:07.537Z,14.84
2022-10-25T21:58:05.659Z,14.78
2022-10-25T22:00:11.930Z,14.73
2022-10-25T22:02:13.420Z,14.71
2022-10-25T22:04:11.742Z,14.74
2022-10-25T22:06:12.050Z,14.87
2022-10-25T22:08:14.549Z,14.97
2022-10-25T22:10:12.759Z,15.00
2022-10-25T22:12:11.007Z,14.98
2022-10-25T22:14:13.170Z,14.92
2022-10-25T22:16:15.240Z,14.88
2022-10-25T22:18:13.497Z,14.81
2022-10-25T22:20:12.062Z,14.75
2022-10-25T22:22:10.189Z,14.66
2022-10-25T22:24:11.703Z,14.64
2022-10-25T22:26:11.586Z,14.60
2022-10-25T22:28:09.755Z,14.53
2022-10-25T22:30:09.500Z,14.50
2022-10-25T22:32:07.818Z,14.49
2022-10-25T22:34:08.565Z,14.51
2022-10-25T22:36:08.695Z,14.51
2022-10-25T22:38:06.922Z,14.48
2022-10-25T22:40:07.988Z,14.48
2022-10-25T22:42:11.711Z,14.49
2022-10-25T22:44:10.030Z,14.51
2022-10-25T22:46:10.098Z,14.45
2022-10-25T22:48:08.203Z,14.46
2022-10-25T22:50:09.733Z,14.42
2022-10-25T22:52:07.913Z,14.40
2022-10-25T22:54:06.321Z,14.44
2022-10-25T22:56:08.668Z,14.38
2022-10-25T22:58:06.796Z,14.44
2022-10-25T23:00:05.500Z,14.36
2022-10-25T23:02:04.859Z,14.31
2022-10-25T23:04:04.704Z,14.41
2022-10-25T23:06:03.780Z,14.38
2022-10-25T23:08:01.965Z,14.31
2022-10-25T23:10:00.332Z,14.31
2022-10-25T23:11:59.994Z,14.25
2022-10-25T23:13:58.947Z,14.15
2022-10-25T23:15:57.132Z,14.10
2022-10-25T23:17:55.291Z,14.08
2022-10-25T23:19:53.439Z,14.08
2022-10-25T23:21:51.679Z,14.06
2022-10-25T23:23:53.196Z,14.01
2022-10-25T23:25:52.108Z,13.99
2022-10-25T23:27:51.750Z,13.91
2022-10-25T23:29:49.980Z,13.87
2022-10-25T23:31:48.019Z,13.74
2022-10-25T23:33:46.865Z,13.75
2022-10-25T23:35:45.050Z,13.68
2022-10-25T23:37:43.382Z,13.66
2022-10-25T23:39:41.605Z,13.63
2022-10-25T23:41:39.930Z,13.63
2022-10-25T23:43:39.884Z,13.61
2022-10-25T23:45:38.014Z,13.59
2022-10-25T23:47:36.293Z,13.57
2022-10-25T23:49:34.580Z,13.60
2022-10-25T23:51:32.823Z,13.57
2022-10-25T23:53:31.140Z,13.59
2022-10-25T23:55:29.289Z,13.59
2022-10-25T23:57:27.622Z,13.57
2022-10-25T23:59:27.300Z,13.56
